| time (UTC) | temp C | wind direction | speed KPH | gust KPH | rain 1hr cm | rain 24hr cm | rain mn cm | humidity % | barometer mb |
| 20260508070539 | 14 | 171 | 1.6 | 1.6 | 0.03 | 0.00 | 0.03 | 8 | 1009.7 |
| 20260508065315 | 14 | 0 | 0.0 | 0.0 | 0.00 | 0.00 | 0.00 | 8 | 1009.7 |
| 20260508064020 | 13 | 0 | 0.0 | 0.0 | 0.00 | 0.00 | 0.00 | 8 | 1009.6 |
| 20260508062620 | 13 | 111 | 4.8 | 4.8 | 0.00 | 0.00 | 0.00 | 8 | 1009.1 |
| 20260508061320 | 13 | 130 | 1.6 | 4.8 | 0.00 | 0.00 | 0.00 | 8 | 1009.2 |
| 20260508055930 | -17 | 0 | 0.0 | 0.0 | 0.00 | 0.00 | 0.00 | 100 | 1009.4 |
| 20260508054730 | -17 | 0 | 0.0 | 0.0 | 0.00 | 0.00 | 0.00 | 100 | 1009.4 |
| 20260508053415 | -17 | 0 | 0.0 | 0.0 | 0.00 | 0.00 | 0.00 | 100 | 1009.0 |
| 20260508051920 | -17 | 0 | 0.0 | 0.0 | 0.00 | 0.00 | 0.00 | 100 | 1008.7 |
| 20260508050700 | -17 | 0 | 0.0 | 0.0 | 0.00 | 0.00 | 0.00 | 100 | 1008.6 |
| 20260508045405 | -17 | 0 | 0.0 | 0.0 | 0.00 | 0.00 | 0.00 | 100 | 1008.3 |
| 20260508044133 | -17 | 0 | 0.0 | 0.0 | 0.00 | 0.00 | 0.00 | 100 | 1008.4 |
| 20260508042655 | -17 | 0 | 0.0 | 0.0 | 0.00 | 0.00 | 0.00 | 100 | 1008.2 |
| 20260508041355 | -17 | 0 | 0.0 | 0.0 | 0.00 | 0.00 | 0.00 | 100 | 1008.2 |
| 20260508035940 | -17 | 0 | 0.0 | 0.0 | 0.00 | 0.00 | 0.00 | 100 | 1008.4 |
| 20260508034603 | -17 | 0 | 0.0 | 0.0 | 0.00 | 0.00 | 0.00 | 100 | 1008.4 |
| 20260508033343 | -17 | 0 | 0.0 | 0.0 | 0.00 | 0.00 | 0.00 | 100 | 1008.3 |
| 20260508032040 | -17 | 0 | 0.0 | 0.0 | 0.00 | 0.00 | 0.00 | 100 | 1008.4 |
| 20260508030841 | -17 | 0 | 0.0 | 0.0 | 0.00 | 0.00 | 0.00 | 100 | 1008.4 |
| 20260508025508 | -17 | 0 | 0.0 | 0.0 | 0.00 | 0.00 | 0.00 | 100 | 1008.7 |
| 20260508024215 | -17 | 0 | 0.0 | 0.0 | 0.00 | 0.00 | 0.00 | 100 | 1008.8 |
| 20260508022915 | -17 | 0 | 0.0 | 0.0 | 0.00 | 0.00 | 0.00 | 100 | 1008.8 |
| 20260508021518 | -17 | 0 | 0.0 | 0.0 | 0.00 | 0.00 | 0.00 | 100 | 1008.7 |
| 20260508020315 | -17 | 0 | 0.0 | 0.0 | 0.00 | 0.00 | 0.00 | 100 | 1008.7 |
| 20260508014855 | -17 | 0 | 0.0 | 0.0 | 0.00 | 0.00 | 0.00 | 100 | 1008.6 |
| 20260508013653 | -17 | 0 | 0.0 | 0.0 | 0.00 | 0.00 | 0.00 | 100 | 1009.0 |
| 20260508012252 | -17 | 0 | 0.0 | 0.0 | 0.00 | 0.00 | 0.00 | 100 | 1009.1 |
| 20260508011025 | -17 | 0 | 0.0 | 0.0 | 0.00 | 0.00 | 0.00 | 100 | 1009.3 |
| 20260508005625 | -17 | 0 | 0.0 | 0.0 | 0.00 | 0.00 | 0.00 | 100 | 1009.3 |
| 20260508004259 | -17 | 0 | 0.0 | 0.0 | 0.00 | 0.00 | 0.00 | 100 | 1009.3 |
| 20260508002920 | -17 | 0 | 0.0 | 0.0 | 0.00 | 0.00 | 0.00 | 100 | 1009.4 |
| 20260508001653 | -17 | 0 | 0.0 | 0.0 | 0.00 | 0.00 | 0.00 | 100 | 1009.4 |
| 20260508000300 | -17 | 0 | 0.0 | 0.0 | 0.00 | 0.00 | 0.00 | 100 | 1009.4 |
| 20260507234935 | -17 | 0 | 0.0 | 0.0 | 0.00 | 0.00 | 0.00 | 100 | 1009.7 |
| 20260507233507 | -17 | 0 | 0.0 | 0.0 | 0.00 | 0.00 | 0.00 | 100 | 1009.7 |
| 20260507232250 | -17 | 0 | 0.0 | 0.0 | 0.00 | 0.00 | 0.00 | 100 | 1009.8 |
| 20260507231000 | -17 | 0 | 0.0 | 0.0 | 0.00 | 0.00 | 0.00 | 100 | 1010.0 |
| 20260507225540 | -17 | 0 | 0.0 | 0.0 | 0.00 | 0.00 | 0.00 | 100 | 1010.2 |
| 20260507224320 | -17 | 0 | 0.0 | 0.0 | 0.00 | 0.00 | 0.00 | 100 | 1010.0 |
| 20260507223105 | -17 | 0 | 0.0 | 0.0 | 0.00 | 0.00 | 0.00 | 100 | 1010.0 |
| 20260507221625 | -17 | 0 | 0.0 | 0.0 | 0.00 | 0.00 | 0.00 | 100 | 1009.9 |
| 20260507220143 | -17 | 0 | 0.0 | 0.0 | 0.00 | 0.00 | 0.00 | 100 | 1009.8 |
| 20260507214725 | -17 | 0 | 0.0 | 0.0 | 0.00 | 0.00 | 0.41 | 100 | 1010.0 |
| 20260507213515 | -17 | 0 | 0.0 | 0.0 | 0.00 | 0.00 | 0.41 | 100 | 1010.0 |
| 20260507212046 | -17 | 0 | 0.0 | 0.0 | 0.00 | 0.00 | 0.41 | 100 | 1009.9 |
| 20260507210615 | -17 | 0 | 0.0 | 0.0 | 0.00 | 0.00 | 0.41 | 100 | 1009.9 |
| 20260507205230 | -17 | 0 | 0.0 | 0.0 | 0.13 | 0.00 | 0.41 | 100 | 1009.8 |
| 20260507204033 | -17 | 0 | 0.0 | 0.0 | 0.33 | 0.00 | 0.41 | 100 | 1009.8 |
| 20260507202753 | -17 | 0 | 0.0 | 0.0 | 0.36 | 0.00 | 0.41 | 100 | 1009.7 |
| 20260507201535 | 13 | 0 | 0.0 | 1.6 | 0.36 | 0.00 | 0.41 | 8 | 1009.8 |
| 20260507200305 | 13 | 0 | 0.0 | 1.6 | 0.36 | 0.00 | 0.41 | 8 | 1009.8 |
| 20260507195022 | 14 | 150 | 1.6 | 4.8 | 0.28 | 0.00 | 0.28 | 8 | 1009.8 |
| 20260507193812 | 14 | 131 | 3.2 | 6.4 | 0.08 | 0.00 | 0.08 | 8 | 1009.7 |
| 20260507192331 | 14 | 337 | 4.8 | 14.5 | 0.05 | 0.00 | 0.05 | 8 | 1009.3 |
| 20260507191120 | 15 | 352 | 8.0 | 14.5 | 0.05 | 0.00 | 0.05 | 8 | 1009.3 |
| 20260507185908 | 15 | 331 | 8.0 | 11.3 | 0.00 | 0.00 | 0.00 | 8 | 1009.0 |
| 20260507184710 | 15 | 331 | 8.0 | 11.3 | 0.00 | 0.00 | 0.00 | 8 | 1009.0 |
| 20260507183503 | 18 | 0 | 0.0 | 6.4 | 0.00 | 0.00 | 0.00 | 8 | 1008.6 |
| 20260507182155 | 18 | 221 | 4.8 | 4.8 | 0.00 | 0.00 | 0.00 | 8 | 1008.1 |
| 20260507180744 | 18 | 185 | 1.6 | 6.4 | 0.00 | 0.00 | 0.00 | 8 | 1007.9 |
| 20260507175244 | 18 | 0 | 0.0 | 4.8 | 0.00 | 0.00 | 0.00 | 8 | 1008.0 |
| 20260507174038 | 18 | 124 | 4.8 | 9.7 | 0.00 | 0.00 | 0.00 | 7 | 1007.8 |
| 20260507172546 | 18 | 106 | 1.6 | 9.7 | 0.00 | 0.00 | 0.00 | 7 | 1007.7 |
| 20260507171050 | 18 | 177 | 1.6 | 3.2 | 0.00 | 0.00 | 0.00 | 7 | 1007.7 |
| 20260507165701 | 18 | 121 | 6.4 | 6.4 | 0.00 | 0.00 | 0.00 | 7 | 1007.7 |
| 20260507164503 | 18 | 233 | 6.4 | 6.4 | 0.00 | 0.00 | 0.00 | 7 | 1007.6 |
| 20260507163210 | 18 | 233 | 6.4 | 6.4 | 0.00 | 0.00 | 0.00 | 7 | 1007.6 |
| 20260507161912 | 18 | 158 | 8.0 | 9.7 | 0.00 | 0.00 | 0.00 | 7 | 1007.7 |
| 20260507160419 | 18 | 140 | 3.2 | 4.8 | 0.00 | 0.00 | 0.00 | 7 | 1007.6 |
| 20260507155120 | 18 | 158 | 6.4 | 9.7 | 0.00 | 0.00 | 0.00 | 7 | 1007.4 |
| 20260507153906 | 18 | 0 | 0.0 | 6.4 | 0.00 | 0.00 | 0.00 | 7 | 1007.1 |
| 20260507152620 | 18 | 0 | 0.0 | 0.0 | 0.00 | 0.00 | 0.00 | 7 | 1007.2 |
| 20260507151410 | 18 | 186 | 8.0 | 8.0 | 0.00 | 0.00 | 0.00 | 7 | 1007.2 |
| 20260507150025 | 19 | 219 | 9.7 | 11.3 | 0.00 | 0.00 | 0.00 | 7 | 1007.4 |
| 20260507144753 | 19 | 219 | 9.7 | 11.3 | 0.00 | 0.00 | 0.00 | 7 | 1007.4 |
| 20260507143315 | 19 | 171 | 3.2 | 14.5 | 0.00 | 0.00 | 0.00 | 7 | 1007.5 |
| 20260507142015 | 20 | 197 | 3.2 | 14.5 | 0.00 | 0.00 | 0.00 | 7 | 1007.4 |
| 20260507135419 | 20 | 250 | 8.0 | 17.7 | 0.00 | 0.00 | 0.00 | 6 | 1007.5 |
| 20260507133950 | 20 | 165 | 3.2 | 19.3 | 0.00 | 0.00 | 0.00 | 7 | 1007.7 |
| 20260507132545 | 20 | 129 | 14.5 | 16.1 | 0.00 | 0.00 | 0.00 | 7 | 1008.0 |
| 20260507131114 | 20 | 231 | 9.7 | 11.3 | 0.00 | 0.00 | 0.00 | 7 | 1008.1 |
| 20260507125824 | 20 | 233 | 3.2 | 3.2 | 0.00 | 0.00 | 0.00 | 7 | 1008.0 |
| 20260507124513 | 20 | 333 | 8.0 | 8.0 | 0.00 | 0.00 | 0.00 | 7 | 1008.2 |
| 20260507123305 | 20 | 333 | 8.0 | 8.0 | 0.00 | 0.00 | 0.00 | 7 | 1008.2 |
| 20260507121915 | 20 | 236 | 1.6 | 3.2 | 0.00 | 0.00 | 0.00 | 7 | 1008.2 |
| 20260507120658 | 20 | 221 | 9.7 | 9.7 | 0.00 | 0.00 | 0.00 | 7 | 1008.5 |
| 20260507115345 | 20 | 1 | 6.4 | 8.0 | 0.00 | 0.00 | 0.00 | 6 | 1008.6 |
| 20260507114050 | 20 | 0 | 0.0 | 4.8 | 0.00 | 0.00 | 0.00 | 7 | 1008.9 |
| 20260507112553 | 20 | 0 | 0.0 | 3.2 | 0.00 | 0.00 | 0.00 | 7 | 1008.8 |
| 20260507111350 | 20 | 0 | 0.0 | 3.2 | 0.00 | 0.00 | 0.00 | 7 | 1009.1 |
| 20260507110045 | 20 | 225 | 1.6 | 4.8 | 0.00 | 0.00 | 0.00 | 7 | 1009.0 |
| 20260507105825 | 20 | 225 | 1.6 | 4.8 | 0.00 | 0.00 | 0.00 | 7 | 1009.0 |
| 20260507104613 | 20 | 225 | 1.6 | 4.8 | 0.00 | 0.00 | 0.00 | 7 | 1009.0 |
| 20260507103239 | 19 | 111 | 4.8 | 9.7 | 0.00 | 0.00 | 0.00 | 7 | 1009.0 |
| 20260507101856 | 19 | 0 | 0.0 | 8.0 | 0.00 | 0.00 | 0.00 | 7 | 1009.1 |
| 20260507100517 | 19 | 170 | 6.4 | 11.3 | 0.00 | 0.00 | 0.00 | 7 | 1009.3 |
| 20260507095251 | 18 | 219 | 4.8 | 6.4 | 0.00 | 0.00 | 0.00 | 7 | 1009.4 |
| 20260507093756 | 18 | 135 | 1.6 | 4.8 | 0.00 | 0.00 | 0.00 | 7 | 1009.3 |
| 20260507092436 | 18 | 0 | 0.0 | 9.7 | 0.00 | 0.00 | 0.00 | 7 | 1009.5 |
| 20260507091056 | 18 | 0 | 0.0 | 3.2 | 0.00 | 0.00 | 0.00 | 7 | 1009.5 |
| 20260507085641 | 18 | 162 | 1.6 | 4.8 | 0.00 | 0.00 | 0.00 | 7 | 1009.4 |
| 20260507084221 | -17 | 0 | 0.0 | 0.0 | 0.00 | 0.00 | 0.00 | 100 | 1009.2 |
| 20260507082925 | -17 | 0 | 0.0 | 0.0 | 0.00 | 0.00 | 0.00 | 100 | 1009.2 |
| 20260507081725 | -17 | 0 | 0.0 | 0.0 | 0.00 | 0.00 | 0.00 | 100 | 1009.2 |
| 20260507080349 | -17 | 0 | 0.0 | 0.0 | 0.00 | 0.00 | 0.00 | 100 | 1009.1 |
| 20260507074901 | -17 | 0 | 0.0 | 0.0 | 0.00 | 0.00 | 0.00 | 100 | 1009.1 |
| 20260507073525 | -17 | 0 | 0.0 | 0.0 | 0.00 | 0.00 | 0.00 | 100 | 1009.2 |
| 20260507072235 | -17 | 0 | 0.0 | 0.0 | 0.00 | 0.00 | 0.00 | 100 | 1009.2 |
| 20260507071035 | -17 | 0 | 0.0 | 0.0 | 0.00 | 0.00 | 0.00 | 100 | 1008.8 |